createdAt,value
2023-03-29T00:02:34.331Z,99216.28
2023-03-29T00:05:41.141Z,99226.28
2023-03-29T00:08:46.139Z,99217.50
2023-03-29T00:11:51.354Z,99210.81
2023-03-29T00:14:55.276Z,99210.31
2023-03-29T00:17:59.337Z,99205.28
2023-03-29T00:21:03.313Z,99203.88
2023-03-29T00:24:07.963Z,99200.53
2023-03-29T00:27:13.124Z,99196.34
2023-03-29T00:30:17.519Z,99198.25
2023-03-29T00:33:22.837Z,99199.34
2023-03-29T00:36:27.827Z,99194.34
2023-03-29T00:39:31.996Z,99192.66
2023-03-29T00:42:37.517Z,99203.22
2023-03-29T00:45:42.276Z,99191.81
2023-03-29T00:48:46.593Z,99183.19
2023-03-29T00:51:50.700Z,99193.13
2023-03-29T00:54:59.769Z,99195.06
2023-03-29T00:58:13.127Z,99198.66
2023-03-29T01:01:26.023Z,99180.06
2023-03-29T01:04:36.506Z,99184.63
2023-03-29T01:07:53.678Z,99187.41
2023-03-29T01:11:06.784Z,99179.50
2023-03-29T01:14:23.675Z,99172.56
2023-03-29T01:17:27.562Z,99185.84
2023-03-29T01:21:03.374Z,99184.06
2023-03-29T01:24:53.081Z,99183.09
2023-03-29T01:28:05.114Z,99173.88
2023-03-29T01:31:16.001Z,99172.59
2023-03-29T01:34:27.334Z,99172.81
2023-03-29T01:37:39.671Z,99165.78
2023-03-29T01:40:43.936Z,99170.22
2023-03-29T01:43:57.945Z,99160.50
2023-03-29T01:47:12.665Z,99154.41
2023-03-29T01:50:23.301Z,99160.63
2023-03-29T01:53:37.618Z,99149.84
2023-03-29T01:56:48.385Z,99156.56
2023-03-29T01:59:57.784Z,99152.50
2023-03-29T02:03:10.525Z,99158.63
2023-03-29T02:06:21.938Z,99159.69
2023-03-29T02:09:25.533Z,99152.88
2023-03-29T02:12:29.879Z,99159.09
2023-03-29T02:15:35.172Z,99156.94
2023-03-29T02:18:41.320Z,99158.97
2023-03-29T02:21:55.109Z,99163.41
2023-03-29T02:25:04.753Z,99160.56
2023-03-29T02:28:09.039Z,99160.78
2023-03-29T02:31:24.134Z,99161.84
2023-03-29T02:34:37.692Z,99155.41
2023-03-29T02:37:49.520Z,99160.91
2023-03-29T02:40:55.293Z,99159.66
2023-03-29T02:44:04.214Z,99158.97
2023-03-29T02:47:20.001Z,99172.00
2023-03-29T02:50:26.647Z,99165.31
2023-03-29T02:53:41.293Z,99166.88
2023-03-29T02:56:47.756Z,99168.78
2023-03-29T02:59:51.575Z,99167.94
2023-03-29T03:02:57.467Z,99175.97
2023-03-29T03:06:02.677Z,99170.69
2023-03-29T03:09:09.864Z,99177.03
2023-03-29T03:12:16.348Z,99171.75
2023-03-29T03:15:20.947Z,99174.63
2023-03-29T03:18:26.069Z,99167.31
2023-03-29T03:21:29.826Z,99168.50
2023-03-29T03:24:33.722Z,99167.66
2023-03-29T03:27:38.098Z,99173.41
2023-03-29T03:30:41.769Z,99171.34
2023-03-29T03:33:56.662Z,99166.53
2023-03-29T03:37:13.121Z,99166.88
2023-03-29T03:40:17.447Z,99166.38
2023-03-29T03:43:21.473Z,99166.63
2023-03-29T03:46:29.675Z,99171.28
2023-03-29T03:49:35.904Z,99182.84
2023-03-29T03:52:39.836Z,99175.78
2023-03-29T03:55:49.116Z,99175.91
2023-03-29T03:58:58.255Z,99180.69
2023-03-29T04:02:03.144Z,99170.38
2023-03-29T04:05:08.990Z,99172.28
2023-03-29T04:08:16.670Z,99173.34
2023-03-29T04:11:39.147Z,99172.63
2023-03-29T04:14:43.586Z,99164.00
2023-03-29T04:17:53.651Z,99169.25
2023-03-29T04:21:04.178Z,99175.34
2023-03-29T04:24:10.608Z,99164.50
2023-03-29T04:27:17.093Z,99168.72
2023-03-29T04:30:21.339Z,99162.72
2023-03-29T04:33:51.673Z,99163.41
2023-03-29T04:36:58.770Z,99176.38
2023-03-29T04:40:02.578Z,99172.53
2023-03-29T04:43:14.418Z,99173.56
2023-03-29T04:46:28.590Z,99172.72
2023-03-29T04:49:42.607Z,99166.75
2023-03-29T04:52:55.671Z,99180.72
2023-03-29T04:55:59.952Z,99186.59
2023-03-29T04:59:29.281Z,99180.09
2023-03-29T05:02:33.325Z,99187.50
2023-03-29T05:05:37.055Z,99184.22
2023-03-29T05:08:42.483Z,99183.44
2023-03-29T05:11:54.619Z,99176.53
2023-03-29T05:14:59.941Z,99167.94
2023-03-29T05:18:05.710Z,99179.59
2023-03-29T05:21:09.521Z,99183.44
2023-03-29T05:24:16.694Z,99178.56
2023-03-29T05:27:45.905Z,99172.81
2023-03-29T05:31:02.480Z,99172.25
2023-03-29T05:34:07.614Z,99180.59
2023-03-29T05:37:16.318Z,99177.41
2023-03-29T05:40:31.435Z,99178.81
2023-03-29T05:43:49.936Z,99180.06
2023-03-29T05:46:54.444Z,99183.16
2023-03-29T05:49:58.482Z,99182.81
2023-03-29T05:53:02.126Z,99182.19
2023-03-29T05:56:10.781Z,99176.22
2023-03-29T05:59:14.903Z,99176.34
2023-03-29T06:02:19.532Z,99165.91
2023-03-29T06:05:29.374Z,99170.94
2023-03-29T06:08:37.740Z,99170.91
2023-03-29T06:12:06.506Z,99171.47
2023-03-29T06:15:17.102Z,99159.81
2023-03-29T06:18:24.626Z,99166.59
2023-03-29T06:21:28.574Z,99161.16
2023-03-29T06:24:32.508Z,99158.47
2023-03-29T06:27:43.142Z,99169.69
2023-03-29T06:30:49.068Z,99169.00
2023-03-29T06:33:52.893Z,99168.84
2023-03-29T06:37:23.290Z,99175.53
2023-03-29T06:40:37.402Z,99173.81
2023-03-29T06:43:42.538Z,99164.16
2023-03-29T06:46:51.828Z,99168.06
2023-03-29T06:49:55.642Z,99164.78
2023-03-29T06:53:11.578Z,99164.81
2023-03-29T06:56:17.608Z,99162.44
2023-03-29T06:59:33.399Z,99175.16
2023-03-29T07:02:52.216Z,99160.13
2023-03-29T07:06:04.084Z,99165.25
2023-03-29T07:09:10.564Z,99167.06
2023-03-29T07:12:38.312Z,99167.34
2023-03-29T07:15:45.248Z,99168.56
2023-03-29T07:18:51.711Z,99173.97
2023-03-29T07:22:18.561Z,99163.66
2023-03-29T07:25:30.941Z,99169.50
2023-03-29T07:28:37.481Z,99158.69
2023-03-29T07:31:43.868Z,99146.78
2023-03-29T07:35:10.166Z,99150.34
2023-03-29T07:38:15.541Z,99149.41
2023-03-29T07:41:24.793Z,99147.63
2023-03-29T07:44:35.637Z,99147.34
2023-03-29T07:47:41.097Z,99139.84
2023-03-29T07:50:45.207Z,99148.25
2023-03-29T07:53:49.738Z,99144.56
2023-03-29T07:57:08.158Z,99148.25
2023-03-29T08:00:20.273Z,99143.09
2023-03-29T08:03:40.589Z,99148.84
2023-03-29T08:06:44.381Z,99150.72
2023-03-29T08:09:48.586Z,99151.47
2023-03-29T08:12:53.672Z,99139.34
2023-03-29T08:16:05.889Z,99145.38
2023-03-29T08:19:16.635Z,99149.44
2023-03-29T08:22:38.916Z,99135.25
2023-03-29T08:25:56.308Z,99134.13
2023-03-29T08:29:00.535Z,99133.66
2023-03-29T08:32:04.782Z,99128.72
2023-03-29T08:35:11.308Z,99124.41
2023-03-29T08:38:33.815Z,99128.09
2023-03-29T08:42:00.126Z,99118.78
2023-03-29T08:45:20.482Z,99122.13
2023-03-29T08:48:31.074Z,99125.78
2023-03-29T08:51:43.999Z,99122.81
2023-03-29T08:54:51.896Z,99122.84
2023-03-29T08:58:09.445Z,99123.16
2023-03-29T09:01:14.281Z,99121.34
2023-03-29T09:04:31.673Z,99112.19
2023-03-29T09:07:48.533Z,99112.19
2023-03-29T09:11:17.976Z,99114.16
2023-03-29T09:15:00.845Z,99105.84
2023-03-29T09:18:21.249Z,99106.66
2023-03-29T09:21:34.679Z,99098.16
2023-03-29T09:25:07.444Z,99097.69
2023-03-29T09:28:20.545Z,99084.00
2023-03-29T09:31:37.233Z,99088.78
2023-03-29T09:34:50.451Z,99085.41
2023-03-29T09:37:57.831Z,99081.69
2023-03-29T09:41:24.708Z,99078.31
2023-03-29T09:44:34.428Z,99069.59
2023-03-29T09:47:51.120Z,99067.22
2023-03-29T09:50:55.250Z,99069.50
2023-03-29T09:54:00.701Z,99079.13
2023-03-29T09:57:21.228Z,99074.94
2023-03-29T10:00:26.046Z,99070.91
2023-03-29T10:03:32.243Z,99066.69
2023-03-29T10:06:50.440Z,99061.47
2023-03-29T10:09:57.145Z,99056.56
2023-03-29T10:13:13.455Z,99067.47
2023-03-29T10:16:23.823Z,99061.59
2023-03-29T10:19:34.514Z,99056.00
2023-03-29T10:22:41.145Z,99059.06
2023-03-29T10:25:45.660Z,99060.38
2023-03-29T10:28:57.082Z,99059.44
2023-03-29T10:32:00.850Z,99071.97
2023-03-29T10:35:11.811Z,99060.84
2023-03-29T10:38:19.701Z,99042.41
2023-03-29T10:41:25.021Z,99039.75
2023-03-29T10:44:34.973Z,99038.75
2023-03-29T10:47:38.779Z,99037.03
2023-03-29T10:50:43.513Z,99047.03
2023-03-29T10:53:47.579Z,99022.91
2023-03-29T10:56:58.081Z,99036.72
2023-03-29T11:00:17.635Z,99033.03
2023-03-29T11:03:52.156Z,99014.91
2023-03-29T11:07:22.529Z,99024.00
2023-03-29T11:10:41.982Z,99006.72
2023-03-29T11:13:59.799Z,99006.28
2023-03-29T11:17:30.027Z,99011.78
2023-03-29T11:20:44.584Z,99005.06
2023-03-29T11:24:01.824Z,99000.72
2023-03-29T11:27:27.656Z,98996.63
2023-03-29T11:30:46.048Z,98983.13
2023-03-29T11:34:08.472Z,98987.38
2023-03-29T11:37:24.741Z,99000.28
2023-03-29T11:40:50.515Z,98976.75
2023-03-29T11:44:03.657Z,98972.91
2023-03-29T11:47:15.116Z,98955.69
2023-03-29T11:50:27.504Z,98959.94
2023-03-29T11:53:40.674Z,98955.28
2023-03-29T11:56:52.225Z,98962.81
2023-03-29T12:00:05.246Z,98956.63
2023-03-29T12:03:34.058Z,98953.72
2023-03-29T12:06:49.386Z,98941.28
2023-03-29T12:10:00.223Z,98952.41
2023-03-29T12:13:12.580Z,98935.91
2023-03-29T12:16:24.128Z,98935.84
2023-03-29T12:19:39.643Z,98931.88
2023-03-29T12:22:51.049Z,98921.78
2023-03-29T12:26:05.385Z,98909.66
2023-03-29T12:29:31.947Z,98919.25
2023-03-29T12:32:57.516Z,98920.66
2023-03-29T12:37:10.431Z,98901.78
2023-03-29T12:40:29.051Z,98901.56
2023-03-29T12:44:05.298Z,98896.03
2023-03-29T12:47:44.668Z,98888.81
2023-03-29T12:50:54.018Z,98885.38
2023-03-29T12:54:08.468Z,98889.88
2023-03-29T12:57:28.166Z,98880.75
2023-03-29T13:00:44.302Z,98883.38
2023-03-29T13:03:53.052Z,98855.03
2023-03-29T13:07:06.094Z,98870.81
2023-03-29T13:10:26.476Z,98880.69
2023-03-29T13:13:36.711Z,98869.44
2023-03-29T13:16:43.073Z,98865.16
2023-03-29T13:20:01.563Z,98873.72
2023-03-29T13:23:32.884Z,98884.00
2023-03-29T13:26:57.332Z,98865.19
2023-03-29T13:30:26.756Z,98874.22
2023-03-29T13:33:58.255Z,98861.44
2023-03-29T13:37:24.215Z,98854.69
2023-03-29T13:40:48.121Z,98863.31
2023-03-29T13:43:55.832Z,98854.22
2023-03-29T13:47:17.505Z,98853.41
2023-03-29T13:50:35.754Z,98854.47
2023-03-29T13:53:46.870Z,98853.16
2023-03-29T13:57:11.182Z,98849.56
2023-03-29T14:00:23.112Z,98852.88
2023-03-29T14:03:31.926Z,98838.66
2023-03-29T14:06:39.520Z,98842.41
2023-03-29T14:09:50.403Z,98830.47
2023-03-29T14:12:56.645Z,98833.97
2023-03-29T14:16:05.350Z,98830.94
2023-03-29T14:19:19.397Z,98832.53
2023-03-29T14:22:23.408Z,98830.63
2023-03-29T14:25:30.357Z,98829.28
2023-03-29T14:28:34.944Z,98822.22
2023-03-29T14:31:41.930Z,98815.00
2023-03-29T14:34:51.121Z,98811.63
2023-03-29T14:37:55.064Z,98812.81
2023-03-29T14:41:02.054Z,98807.31
2023-03-29T14:44:08.211Z,98808.59
2023-03-29T14:47:22.174Z,98799.50
2023-03-29T14:50:31.585Z,98795.25
2023-03-29T14:53:39.029Z,98799.78
2023-03-29T14:56:42.909Z,98788.28
2023-03-29T14:59:55.741Z,98790.31
2023-03-29T15:03:02.962Z,98788.66
2023-03-29T15:06:09.137Z,98787.84
2023-03-29T15:09:20.297Z,98789.31
2023-03-29T15:12:24.406Z,98781.94
2023-03-29T15:15:28.784Z,98782.34
2023-03-29T15:18:39.940Z,98780.22
2023-03-29T15:21:48.848Z,98779.03
2023-03-29T15:24:52.613Z,98772.00
2023-03-29T15:28:00.957Z,98770.09
2023-03-29T15:31:12.891Z,98780.78
2023-03-29T15:34:27.921Z,98771.75
2023-03-29T15:37:33.566Z,98762.19
2023-03-29T15:40:37.351Z,98764.03
2023-03-29T15:43:41.542Z,98770.00
2023-03-29T15:46:45.561Z,98763.78
2023-03-29T15:49:49.432Z,98765.63
2023-03-29T15:53:08.619Z,98765.59
2023-03-29T15:56:20.336Z,98756.09
2023-03-29T15:59:24.467Z,98745.88
2023-03-29T16:02:28.694Z,98750.69
2023-03-29T16:05:32.706Z,98750.41
2023-03-29T16:08:38.206Z,98740.88
2023-03-29T16:11:44.407Z,98742.25
2023-03-29T16:14:48.001Z,98739.00
2023-03-29T16:17:51.841Z,98745.66
2023-03-29T16:20:56.958Z,98744.19
2023-03-29T16:24:02.994Z,98738.97
2023-03-29T16:27:07.001Z,98736.13
2023-03-29T16:30:12.906Z,98723.75
2023-03-29T16:33:16.742Z,98725.81
2023-03-29T16:36:20.647Z,98724.69
2023-03-29T16:39:25.635Z,98728.16
2023-03-29T16:42:29.301Z,98731.66
2023-03-29T16:45:33.123Z,98731.69
2023-03-29T16:48:37.365Z,98730.59
2023-03-29T16:51:41.133Z,98723.22
2023-03-29T16:54:46.916Z,98722.44
2023-03-29T16:57:51.272Z,98718.34
2023-03-29T17:00:56.215Z,98721.81
2023-03-29T17:03:59.925Z,98715.00
2023-03-29T17:07:03.764Z,98723.69
2023-03-29T17:10:10.719Z,98723.25
2023-03-29T17:13:15.078Z,98722.78
2023-03-29T17:16:19.132Z,98728.13
2023-03-29T17:19:23.482Z,98723.94
2023-03-29T17:22:27.829Z,98720.19
2023-03-29T17:25:33.024Z,98723.44
2023-03-29T17:28:37.302Z,98722.56
2023-03-29T17:31:46.951Z,98725.81
2023-03-29T17:34:51.606Z,98732.56
2023-03-29T17:37:55.837Z,98733.94
2023-03-29T17:41:01.276Z,98742.50
2023-03-29T17:44:05.355Z,98746.34
2023-03-29T17:47:09.395Z,98744.22
2023-03-29T17:50:14.346Z,98753.00
2023-03-29T17:53:18.245Z,98756.84
2023-03-29T17:56:24.434Z,98757.84
2023-03-29T17:59:28.530Z,98754.53
2023-03-29T18:02:32.746Z,98752.41
2023-03-29T18:05:37.830Z,98754.84
2023-03-29T18:08:41.994Z,98752.47
2023-03-29T18:11:47.447Z,98752.38
2023-03-29T18:14:51.826Z,98750.66
2023-03-29T18:17:55.934Z,98757.59
2023-03-29T18:21:02.654Z,98762.22
2023-03-29T18:24:07.190Z,98751.94
2023-03-29T18:27:13.207Z,98759.50
2023-03-29T18:30:17.432Z,98765.41
2023-03-29T18:33:21.458Z,98766.00
2023-03-29T18:36:26.447Z,98773.09
2023-03-29T18:39:31.992Z,98768.50
2023-03-29T18:42:37.660Z,98771.91
2023-03-29T18:45:41.812Z,98761.16
2023-03-29T18:48:46.309Z,98763.53
2023-03-29T18:51:51.747Z,98770.44
2023-03-29T18:54:58.379Z,98764.66
2023-03-29T18:58:03.612Z,98756.19
2023-03-29T19:01:09.760Z,98755.91
2023-03-29T19:04:16.376Z,98746.63
2023-03-29T19:07:21.043Z,98755.19
2023-03-29T19:10:25.631Z,98751.38
2023-03-29T19:13:31.039Z,98766.16
2023-03-29T19:16:34.939Z,98762.53
2023-03-29T19:19:38.867Z,98756.94
2023-03-29T19:22:42.543Z,98756.28
2023-03-29T19:25:53.673Z,98765.50
2023-03-29T19:28:59.018Z,98762.34
2023-03-29T19:32:02.671Z,98762.91
2023-03-29T19:35:09.655Z,98760.97
2023-03-29T19:38:13.821Z,98748.31
2023-03-29T19:41:17.612Z,98755.22
2023-03-29T19:44:23.628Z,98740.41
2023-03-29T19:47:28.181Z,98731.91
2023-03-29T19:50:32.726Z,98733.50
2023-03-29T19:53:38.712Z,98730.88
2023-03-29T19:56:43.122Z,98720.94
2023-03-29T19:59:48.664Z,98709.97
2023-03-29T20:02:52.539Z,98704.16
2023-03-29T20:05:57.046Z,98711.06
2023-03-29T20:09:00.578Z,98708.44
2023-03-29T20:12:04.934Z,98705.78
2023-03-29T20:15:11.893Z,98702.00
2023-03-29T20:18:15.820Z,98709.53
2023-03-29T20:21:19.607Z,98710.34
2023-03-29T20:24:23.988Z,98723.03
2023-03-29T20:27:29.532Z,98714.38
2023-03-29T20:30:35.111Z,98712.44
2023-03-29T20:33:39.337Z,98717.13
2023-03-29T20:36:43.860Z,98716.47
2023-03-29T20:39:47.721Z,98717.47
2023-03-29T20:42:51.506Z,98716.19
2023-03-29T20:45:57.157Z,98714.88
2023-03-29T20:49:01.600Z,98707.41
2023-03-29T20:52:08.628Z,98709.56
2023-03-29T20:55:13.533Z,98714.47
2023-03-29T20:58:17.139Z,98713.97
2023-03-29T21:01:22.411Z,98714.97
2023-03-29T21:04:26.688Z,98707.16
2023-03-29T21:07:31.304Z,98702.00
2023-03-29T21:10:36.617Z,98701.00
2023-03-29T21:13:40.815Z,98693.16
2023-03-29T21:16:47.443Z,98691.72
2023-03-29T21:19:51.972Z,98682.88
2023-03-29T21:22:55.970Z,98683.34
2023-03-29T21:25:59.833Z,98677.66
2023-03-29T21:29:03.600Z,98683.66
2023-03-29T21:32:09.048Z,98684.66
2023-03-29T21:35:14.036Z,98682.63
2023-03-29T21:38:18.922Z,98681.91
2023-03-29T21:41:22.377Z,98685.38
2023-03-29T21:44:26.980Z,98676.13
2023-03-29T21:47:32.245Z,98678.53
2023-03-29T21:50:36.310Z,98676.81
2023-03-29T21:53:40.077Z,98677.25
2023-03-29T21:56:45.505Z,98680.06
2023-03-29T21:59:49.277Z,98677.03
2023-03-29T22:02:54.448Z,98679.31
2023-03-29T22:06:00.505Z,98678.31
2023-03-29T22:09:05.158Z,98671.13
2023-03-29T22:12:10.696Z,98663.94
2023-03-29T22:15:15.099Z,98661.09
2023-03-29T22:18:20.909Z,98651.72
2023-03-29T22:21:28.313Z,98637.03
2023-03-29T22:24:31.811Z,98636.28
2023-03-29T22:27:35.655Z,98636.75
2023-03-29T22:30:39.166Z,98640.06
2023-03-29T22:33:45.116Z,98636.19
2023-03-29T22:36:48.725Z,98636.81
2023-03-29T22:39:52.568Z,98624.59
2023-03-29T22:42:56.204Z,98622.00
2023-03-29T22:46:00.152Z,98630.28
2023-03-29T22:49:06.245Z,98628.56
2023-03-29T22:52:10.415Z,98631.28
2023-03-29T22:55:14.228Z,98632.41
2023-03-29T22:58:18.136Z,98623.25
2023-03-29T23:01:21.809Z,98616.53
2023-03-29T23:04:27.228Z,98626.00
2023-03-29T23:07:31.250Z,98625.81
2023-03-29T23:10:35.480Z,98618.06
2023-03-29T23:13:39.219Z,98620.00
2023-03-29T23:16:43.321Z,98607.25
2023-03-29T23:19:48.647Z,98612.59
2023-03-29T23:22:53.005Z,98612.22
2023-03-29T23:25:57.884Z,98605.88
2023-03-29T23:29:02.334Z,98609.19
2023-03-29T23:32:06.580Z,98603.66
2023-03-29T23:35:11.825Z,98606.97
2023-03-29T23:38:15.868Z,98613.97
2023-03-29T23:41:20.371Z,98604.09
2023-03-29T23:44:24.337Z,98605.56
2023-03-29T23:47:28.779Z,98593.28
2023-03-29T23:50:34.135Z,98593.09
2023-03-29T23:53:38.256Z,98600.94
2023-03-29T23:56:42.070Z,98598.06
2023-03-29T23:59:46.219Z,98596.84
